Terminal Aerodrome Forecast
Issued by NWS

Home | Current Version | Previous Version | Text Only | Print | Product List | Glossary On
Versions: 1 2 3 4 5 6 7 8 9 10 11 12 13 14 15 16 17 18 19 20 21 22 23 24 25 26 27
000
FTUS45 KRIW 052300
TAFCPR
TAF
KCPR 052338Z 0600/0624 09012KT P6SM VCTS SCT040CB BKN080
     FM060300 12007KT P6SM VCSH BKN060
     FM061200 36008KT P6SM VCSH BKN026
     FM061400 36010KT 5SM -RA BR OVC014=

USA.gov is the U.S. government's official web portal to all federal, state and local government web resources and services.